createdAt,value
2018-09-20T00:01:03.380Z,22.60
2018-09-20T00:03:31.524Z,22.70
2018-09-20T00:05:59.637Z,22.60
2018-09-20T00:08:27.737Z,22.60
2018-09-20T00:10:55.828Z,22.70
2018-09-20T00:13:23.916Z,22.70
2018-09-20T00:15:52.037Z,22.90
2018-09-20T00:18:20.121Z,22.90
2018-09-20T00:20:48.241Z,22.80
2018-09-20T00:23:16.348Z,22.50
2018-09-20T00:25:44.419Z,22.50
2018-09-20T00:28:12.494Z,22.60
2018-09-20T00:30:40.609Z,22.60
2018-09-20T00:33:08.684Z,22.60
2018-09-20T00:35:36.778Z,22.40
2018-09-20T00:38:05.285Z,22.40
2018-09-20T00:40:33.372Z,22.60
2018-09-20T00:43:01.484Z,22.40
2018-09-20T00:45:29.584Z,22.50
2018-09-20T00:47:57.732Z,22.50
2018-09-20T00:50:25.831Z,22.30
2018-09-20T00:52:53.889Z,22.40
2018-09-20T00:55:21.965Z,22.40
2018-09-20T00:57:50.029Z,22.50
2018-09-20T01:00:18.113Z,22.40
2018-09-20T01:02:46.177Z,22.40
2018-09-20T01:05:14.245Z,22.50
2018-09-20T01:07:42.340Z,22.50
2018-09-20T01:10:10.440Z,22.40
2018-09-20T01:12:38.517Z,22.40
2018-09-20T01:15:07.025Z,22.60
2018-09-20T01:17:35.085Z,22.30
2018-09-20T01:20:03.304Z,22.50
2018-09-20T01:22:31.405Z,22.30
2018-09-20T01:24:59.588Z,22.30
2018-09-20T01:27:27.720Z,22.60
2018-09-20T01:29:55.850Z,22.50
2018-09-20T01:32:23.918Z,22.40
2018-09-20T01:34:52.004Z,22.20
2018-09-20T01:37:20.095Z,22.20
2018-09-20T01:39:48.213Z,22.30
2018-09-20T01:42:16.291Z,22.30
2018-09-20T01:44:44.395Z,21.90
2018-09-20T01:47:12.481Z,22.10
2018-09-20T01:49:40.547Z,21.90
2018-09-20T01:52:08.620Z,22.10
2018-09-20T01:54:36.711Z,22.00
2018-09-20T01:57:04.792Z,22.00
2018-09-20T01:59:32.876Z,22.10
2018-09-20T02:02:01.017Z,22.10
2018-09-20T02:04:29.144Z,22.10
2018-09-20T02:06:57.225Z,22.10
2018-09-20T02:09:25.311Z,22.10
2018-09-20T02:11:53.395Z,22.10
2018-09-20T02:14:21.454Z,22.10
2018-09-20T02:16:49.604Z,22.10
2018-09-20T02:19:17.680Z,21.90
2018-09-20T02:21:45.792Z,21.90
2018-09-20T02:24:13.865Z,21.80
2018-09-20T02:26:41.984Z,21.90
2018-09-20T02:29:10.096Z,22.00
2018-09-20T02:31:38.189Z,22.00
2018-09-20T02:34:06.271Z,21.80
2018-09-20T02:36:34.372Z,21.50
2018-09-20T02:39:02.477Z,21.80
2018-09-20T02:41:30.606Z,21.70
2018-09-20T02:43:58.741Z,21.80
2018-09-20T02:46:26.855Z,21.80
2018-09-20T02:48:54.932Z,21.70
2018-09-20T02:51:23.059Z,21.70
2018-09-20T02:53:51.141Z,21.70
2018-09-20T02:56:19.225Z,21.50
2018-09-20T02:58:47.314Z,21.50
2018-09-20T03:01:15.381Z,21.50
2018-09-20T03:03:43.444Z,21.40
2018-09-20T03:06:11.569Z,21.50
2018-09-20T03:08:39.653Z,21.30
2018-09-20T03:11:07.722Z,21.40
2018-09-20T03:13:35.809Z,21.30
2018-09-20T03:16:03.916Z,21.50
2018-09-20T03:18:32.041Z,21.50
2018-09-20T03:21:00.234Z,21.40
2018-09-20T03:23:28.385Z,21.50
2018-09-20T03:25:56.485Z,21.50
2018-09-20T03:28:24.549Z,21.40
2018-09-20T03:30:52.744Z,21.10
2018-09-20T03:33:20.736Z,21.20
2018-09-20T03:35:48.837Z,21.20
2018-09-20T03:38:17.184Z,21.50
2018-09-20T03:40:45.264Z,21.60
2018-09-20T03:43:13.363Z,21.30
2018-09-20T03:45:41.433Z,21.60
2018-09-20T03:48:09.534Z,21.40
2018-09-20T03:50:37.629Z,21.40
2018-09-20T03:53:05.774Z,21.50
2018-09-20T03:55:33.904Z,21.50
2018-09-20T03:58:02.026Z,21.40
2018-09-20T04:00:30.228Z,21.30
2018-09-20T04:02:58.324Z,21.50
2018-09-20T04:05:26.479Z,21.50
2018-09-20T04:07:54.572Z,21.40
2018-09-20T04:11:01.302Z,21.20
2018-09-20T04:13:29.632Z,21.20
2018-09-20T04:15:57.848Z,21.60
2018-09-20T04:18:25.972Z,21.60
2018-09-20T04:20:54.129Z,21.50
2018-09-20T04:23:22.209Z,21.30
2018-09-20T04:25:50.317Z,21.40
2018-09-20T04:28:18.433Z,21.50
2018-09-20T04:30:46.629Z,21.40
2018-09-20T04:33:14.737Z,21.50
2018-09-20T04:35:42.825Z,21.60
2018-09-20T04:38:10.928Z,21.40
2018-09-20T04:40:39.081Z,21.50
2018-09-20T04:43:07.177Z,21.40
2018-09-20T04:45:35.382Z,21.20
2018-09-20T04:48:03.694Z,21.20
2018-09-20T04:50:31.801Z,21.40
2018-09-20T04:52:59.988Z,21.40
2018-09-20T04:55:28.248Z,21.20
2018-09-20T04:57:56.350Z,21.40
2018-09-20T05:00:24.429Z,21.60
2018-09-20T05:02:52.524Z,21.70
2018-09-20T05:05:20.652Z,21.90
2018-09-20T05:07:48.758Z,21.60
2018-09-20T05:10:16.855Z,21.70
2018-09-20T05:12:44.945Z,21.50
2018-09-20T05:15:13.092Z,21.20
2018-09-20T05:17:41.204Z,21.30
2018-09-20T05:20:09.301Z,21.40
2018-09-20T05:22:37.417Z,21.20
2018-09-20T05:25:05.515Z,21.40
2018-09-20T05:27:33.676Z,21.50
2018-09-20T05:30:01.832Z,21.40
2018-09-20T05:32:30.084Z,21.30
2018-09-20T05:34:58.197Z,21.10
2018-09-20T05:37:26.313Z,21.30
2018-09-20T05:39:54.621Z,21.40
2018-09-20T05:42:22.738Z,21.40
2018-09-20T05:44:50.885Z,21.00
2018-09-20T05:47:19.027Z,21.00
2018-09-20T05:49:47.121Z,21.20
2018-09-20T05:52:15.241Z,21.30
2018-09-20T05:54:43.318Z,21.10
2018-09-20T05:57:11.424Z,21.30
2018-09-20T05:59:39.505Z,21.60
2018-09-20T06:02:07.580Z,21.70
2018-09-20T06:04:35.726Z,21.50
2018-09-20T06:07:04.053Z,21.60
2018-09-20T06:09:32.337Z,21.20
2018-09-20T06:12:00.537Z,21.20
2018-09-20T06:14:28.730Z,21.40
2018-09-20T06:16:56.841Z,21.70
2018-09-20T06:19:24.960Z,21.70
2018-09-20T06:21:53.118Z,21.40
2018-09-20T06:24:21.178Z,21.50
2018-09-20T06:26:49.265Z,21.50
2018-09-20T06:29:17.496Z,21.30
2018-09-20T06:31:45.589Z,21.60
2018-09-20T06:34:13.708Z,21.80
2018-09-20T06:36:41.830Z,21.50
2018-09-20T06:39:11.655Z,21.50
2018-09-20T06:41:40.007Z,21.50
2018-09-20T06:44:08.152Z,21.30
2018-09-20T06:46:36.277Z,21.50
2018-09-20T06:49:04.393Z,20.90
2018-09-20T06:51:32.623Z,21.10
2018-09-20T06:54:00.766Z,21.40
2018-09-20T06:56:28.998Z,21.50
2018-09-20T06:58:57.081Z,21.60
2018-09-20T07:01:25.189Z,21.70
2018-09-20T07:03:53.286Z,21.80
2018-09-20T07:06:21.780Z,21.80
2018-09-20T07:08:49.946Z,21.70
2018-09-20T07:11:18.142Z,21.50
2018-09-20T07:13:46.279Z,21.80
2018-09-20T07:16:14.389Z,21.70
2018-09-20T07:18:42.567Z,21.90
2018-09-20T07:21:10.681Z,21.90
2018-09-20T07:23:38.838Z,21.90
2018-09-20T07:26:07.065Z,22.00
2018-09-20T07:28:35.211Z,22.00
2018-09-20T07:31:03.440Z,22.00
2018-09-20T07:33:31.677Z,21.80
2018-09-20T07:35:59.960Z,21.70
2018-09-20T07:38:28.126Z,21.60
2018-09-20T07:40:56.519Z,21.50
2018-09-20T07:43:24.672Z,21.40
2018-09-20T07:45:52.786Z,21.40
2018-09-20T07:48:21.839Z,21.40
2018-09-20T07:50:50.169Z,21.60
2018-09-20T07:53:18.269Z,21.70
2018-09-20T07:55:46.358Z,21.80
2018-09-20T07:58:14.556Z,22.00
2018-09-20T08:00:42.757Z,21.70
2018-09-20T08:03:10.833Z,21.60
2018-09-20T08:05:38.932Z,21.60
2018-09-20T08:08:07.121Z,21.80
2018-09-20T08:10:35.276Z,21.80
2018-09-20T08:13:03.816Z,21.60
2018-09-20T08:15:31.885Z,21.70
2018-09-20T08:17:59.979Z,21.80
2018-09-20T08:20:28.078Z,21.90
2018-09-20T08:22:56.260Z,22.10
2018-09-20T08:25:24.389Z,22.20
2018-09-20T08:27:52.540Z,21.90
2018-09-20T08:30:20.700Z,22.00
2018-09-20T08:32:48.897Z,22.10
2018-09-20T08:40:04.313Z,22.10
2018-09-20T08:42:32.474Z,22.30
2018-09-20T08:45:00.632Z,22.20
2018-09-20T08:47:28.802Z,22.30
2018-09-20T08:49:56.965Z,22.30
2018-09-20T08:52:25.403Z,22.20
2018-09-20T08:54:53.506Z,22.20
2018-09-20T08:57:21.800Z,22.30
2018-09-20T08:59:49.768Z,22.40
2018-09-20T09:02:17.909Z,22.40
2018-09-20T09:04:46.135Z,22.30
2018-09-20T09:07:14.329Z,22.20
2018-09-20T09:09:42.501Z,22.40
2018-09-20T09:12:10.751Z,22.40
2018-09-20T09:14:38.877Z,22.50
2018-09-20T09:17:06.958Z,22.50
2018-09-20T09:19:35.076Z,22.60
2018-09-20T09:22:03.143Z,22.60
2018-09-20T09:24:31.272Z,22.60
2018-09-20T09:26:59.549Z,22.50
2018-09-20T09:29:27.716Z,22.50
2018-09-20T09:31:55.940Z,22.60
2018-09-20T09:34:24.128Z,22.60
2018-09-20T09:36:52.233Z,22.50
2018-09-20T09:39:20.344Z,22.60
2018-09-20T09:41:48.553Z,22.60
2018-09-20T09:44:16.745Z,22.70
2018-09-20T09:46:45.069Z,22.80
2018-09-20T09:49:13.271Z,22.90
2018-09-20T09:51:41.625Z,22.90
2018-09-20T09:54:09.808Z,22.90
2018-09-20T09:56:38.051Z,22.90
2018-09-20T09:59:06.157Z,22.90
2018-09-20T10:01:34.254Z,23.00
2018-09-20T10:04:02.397Z,22.90
2018-09-20T10:06:30.537Z,22.90
2018-09-20T10:08:58.960Z,22.90
2018-09-20T10:11:27.147Z,23.00
2018-09-20T10:13:55.465Z,23.00
2018-09-20T10:16:23.592Z,23.00
2018-09-20T10:18:51.738Z,23.20
2018-09-20T10:21:19.872Z,23.20
2018-09-20T10:23:48.153Z,23.20
2018-09-20T10:26:16.289Z,23.30
2018-09-20T10:28:44.519Z,23.20
2018-09-20T10:31:12.844Z,23.10
2018-09-20T10:33:41.209Z,23.10
2018-09-20T10:36:16.485Z,23.00
2018-09-20T10:38:44.701Z,23.10
2018-09-20T10:41:12.897Z,23.10
2018-09-20T10:43:41.356Z,23.40
2018-09-20T10:46:09.560Z,23.40
2018-09-20T10:48:37.709Z,23.40
2018-09-20T10:51:06.122Z,23.40
2018-09-20T10:53:34.284Z,23.60
2018-09-20T10:56:02.494Z,23.60
2018-09-20T10:58:30.705Z,23.70
2018-09-20T11:00:58.786Z,23.80
2018-09-20T11:03:26.972Z,23.90
2018-09-20T11:05:55.129Z,23.80
2018-09-20T11:08:23.213Z,23.60
2018-09-20T11:10:51.353Z,23.60
2018-09-20T11:13:19.640Z,23.80
2018-09-20T11:15:47.997Z,23.70
2018-09-20T11:18:16.369Z,23.90
2018-09-20T11:20:44.542Z,24.10
2018-09-20T11:23:12.676Z,24.50
2018-09-20T11:25:40.844Z,24.30
2018-09-20T11:28:08.948Z,24.40
2018-09-20T11:30:37.055Z,24.20
2018-09-20T11:33:05.216Z,24.10
2018-09-20T11:35:33.336Z,23.90
2018-09-20T11:38:01.441Z,23.80
2018-09-20T11:40:29.564Z,23.80
2018-09-20T11:42:57.729Z,23.80
2018-09-20T11:45:25.821Z,23.70
2018-09-20T11:47:54.049Z,23.70
2018-09-20T11:50:22.185Z,23.90
2018-09-20T11:52:50.290Z,23.70
2018-09-20T11:55:18.437Z,23.90
2018-09-20T11:57:46.794Z,24.00
2018-09-20T12:00:19.475Z,24.00
2018-09-20T12:02:47.737Z,23.80
2018-09-20T12:05:15.900Z,23.70
2018-09-20T12:07:44.536Z,23.50
2018-09-20T12:10:12.725Z,23.60
2018-09-20T12:12:40.974Z,23.80
2018-09-20T12:15:09.280Z,23.60
2018-09-20T12:17:37.605Z,23.60
2018-09-20T12:20:05.963Z,23.60
2018-09-20T12:22:34.897Z,23.70
2018-09-20T12:25:03.345Z,23.70
2018-09-20T12:27:32.833Z,24.10
2018-09-20T12:30:03.140Z,24.40
2018-09-20T12:32:31.393Z,24.50
2018-09-20T12:34:59.648Z,24.40
2018-09-20T12:37:33.397Z,24.50
2018-09-20T12:40:02.559Z,24.40
2018-09-20T12:42:32.528Z,24.30
2018-09-20T12:45:01.492Z,24.40
2018-09-20T12:47:30.009Z,24.20
2018-09-20T12:49:58.956Z,24.10
2018-09-20T12:52:28.145Z,24.00
2018-09-20T12:54:57.558Z,23.80
2018-09-20T12:57:26.368Z,23.90
2018-09-20T12:59:54.720Z,23.80
2018-09-20T13:02:23.005Z,23.70
2018-09-20T13:04:51.473Z,23.90
2018-09-20T13:07:21.201Z,23.50
2018-09-20T13:13:51.067Z,24.00
2018-09-20T13:16:19.540Z,24.20
2018-09-20T13:18:47.833Z,24.10
2018-09-20T13:21:16.031Z,24.80
2018-09-20T13:23:44.302Z,25.30
2018-09-20T13:26:12.826Z,25.30
2018-09-20T13:28:41.071Z,25.00
2018-09-20T13:31:09.295Z,24.80
2018-09-20T13:33:37.546Z,24.40
2018-09-20T13:36:05.785Z,24.10
2018-09-20T13:38:34.039Z,24.50
2018-09-20T13:41:02.253Z,25.00
2018-09-20T13:43:30.398Z,25.30
2018-09-20T13:45:58.648Z,25.00
2018-09-20T13:48:26.980Z,25.60
2018-09-20T13:50:55.248Z,25.80
2018-09-20T13:53:23.800Z,24.80
2018-09-20T13:55:52.014Z,24.90
2018-09-20T13:58:20.259Z,25.30
2018-09-20T14:00:48.509Z,25.60
2018-09-20T14:03:16.837Z,25.50
2018-09-20T14:05:45.609Z,25.90
2018-09-20T14:08:13.981Z,26.20
2018-09-20T14:10:42.653Z,25.50
2018-09-20T14:13:11.077Z,26.10
2018-09-20T14:15:41.200Z,25.80
2018-09-20T14:18:09.450Z,25.20
2018-09-20T14:20:37.613Z,24.90
2018-09-20T14:23:06.040Z,25.30
2018-09-20T14:25:34.185Z,25.20
2018-09-20T14:28:04.878Z,25.00
2018-09-20T14:30:32.997Z,25.50
2018-09-20T14:33:01.276Z,25.00
2018-09-20T14:35:29.690Z,25.10
2018-09-20T14:37:58.001Z,24.20
2018-09-20T14:40:26.167Z,24.50
2018-09-20T14:42:56.903Z,24.60
2018-09-20T14:45:25.178Z,24.80
2018-09-20T14:47:53.869Z,25.00
2018-09-20T14:50:22.707Z,24.80
2018-09-20T14:52:50.945Z,24.80
2018-09-20T14:55:19.834Z,24.90
2018-09-20T14:57:48.247Z,25.20
2018-09-20T15:00:18.843Z,25.30
2018-09-20T15:02:47.127Z,25.10
2018-09-20T15:05:15.494Z,25.20
2018-09-20T15:07:43.812Z,25.00
2018-09-20T15:10:12.909Z,25.30
2018-09-20T15:12:41.556Z,25.30
2018-09-20T15:15:10.039Z,25.20
2018-09-20T15:17:38.334Z,25.70
2018-09-20T15:20:06.601Z,25.20
2018-09-20T15:22:35.018Z,25.00
2018-09-20T15:25:03.336Z,24.90
2018-09-20T15:27:31.906Z,25.10
2018-09-20T15:30:00.224Z,25.20
2018-09-20T15:32:28.515Z,25.00
2018-09-20T15:34:56.713Z,25.30
2018-09-20T15:37:24.909Z,24.80
2018-09-20T15:39:53.695Z,25.20
2018-09-20T15:42:21.873Z,24.80
2018-09-20T15:44:50.033Z,24.70
2018-09-20T15:47:18.201Z,25.10
2018-09-20T15:49:46.424Z,25.10
2018-09-20T15:52:14.817Z,25.00
2018-09-20T15:54:43.080Z,25.00
2018-09-20T15:57:11.910Z,24.80
2018-09-20T15:59:40.143Z,24.60
2018-09-20T16:02:08.596Z,24.40
2018-09-20T16:04:36.668Z,24.50
2018-09-20T16:07:04.833Z,24.50
2018-09-20T16:09:33.102Z,24.60
2018-09-20T16:12:01.609Z,24.30
2018-09-20T16:14:29.798Z,24.20
2018-09-20T16:16:58.170Z,24.30
2018-09-20T16:19:26.721Z,24.30
2018-09-20T16:21:55.716Z,24.20
2018-09-20T16:24:24.475Z,24.30
2018-09-20T16:26:52.696Z,24.40
2018-09-20T16:29:29.034Z,24.40
2018-09-20T16:32:09.397Z,24.40
2018-09-20T16:35:03.219Z,24.30
2018-09-20T16:37:46.947Z,24.10
2018-09-20T16:40:16.360Z,24.00
2018-09-20T16:42:45.386Z,24.00
2018-09-20T16:45:13.516Z,24.10
2018-09-20T16:47:41.813Z,24.10
2018-09-20T16:50:10.020Z,24.40
2018-09-20T16:52:38.665Z,24.30
2018-09-20T16:55:07.509Z,24.20
2018-09-20T16:57:35.688Z,24.20
2018-09-20T17:00:06.238Z,24.10
2018-09-20T17:02:34.385Z,24.30
2018-09-20T17:05:02.638Z,24.40
2018-09-20T17:07:30.774Z,24.30
2018-09-20T17:09:59.025Z,24.10
2018-09-20T17:12:27.405Z,24.10
2018-09-20T17:14:55.749Z,24.00
2018-09-20T17:17:23.813Z,24.10
2018-09-20T17:19:51.980Z,24.00
2018-09-20T17:22:20.173Z,24.10
2018-09-20T17:24:48.454Z,24.00
2018-09-20T17:27:16.709Z,24.10
2018-09-20T17:29:45.085Z,24.10
2018-09-20T17:32:13.376Z,24.10
2018-09-20T17:34:41.747Z,24.10
2018-09-20T17:37:10.664Z,24.10
2018-09-20T17:39:39.790Z,24.10
2018-09-20T17:42:09.231Z,24.10
2018-09-20T17:44:37.349Z,24.00
2018-09-20T17:47:06.156Z,24.00
2018-09-20T17:49:34.305Z,24.00
2018-09-20T17:52:02.609Z,23.90
2018-09-20T17:54:31.265Z,24.00
2018-09-20T17:56:59.881Z,24.00
2018-09-20T17:59:28.108Z,23.90
2018-09-20T18:01:56.313Z,23.90
2018-09-20T18:04:25.631Z,23.90
2018-09-20T18:06:54.393Z,23.90
2018-09-20T18:09:24.249Z,23.90
2018-09-20T18:11:55.495Z,23.90
2018-09-20T18:14:24.328Z,23.80
2018-09-20T18:16:52.933Z,23.80
2018-09-20T18:19:22.476Z,23.80
2018-09-20T18:21:51.014Z,23.80
2018-09-20T18:24:19.252Z,23.80
2018-09-20T18:26:47.750Z,23.80
2018-09-20T18:29:15.993Z,23.70
2018-09-20T18:31:44.323Z,23.70
2018-09-20T18:34:12.727Z,23.70
2018-09-20T18:36:41.261Z,23.70
2018-09-20T18:39:11.563Z,23.70
2018-09-20T18:41:39.859Z,23.70
2018-09-20T18:44:08.948Z,23.60
2018-09-20T18:46:37.295Z,23.60
2018-09-20T18:49:05.991Z,23.60
2018-09-20T18:51:35.226Z,23.60
2018-09-20T18:54:03.605Z,23.60
2018-09-20T18:56:32.053Z,23.50
2018-09-20T18:59:01.445Z,23.50
2018-09-20T19:01:29.618Z,23.50
2018-09-20T19:03:58.585Z,23.40
2018-09-20T19:06:27.589Z,23.40
2018-09-20T19:08:55.776Z,23.40
2018-09-20T19:11:23.995Z,23.40
2018-09-20T19:13:52.986Z,23.40
2018-09-20T19:16:21.237Z,23.40
2018-09-20T19:18:49.421Z,23.40
2018-09-20T19:21:17.983Z,23.40
2018-09-20T19:23:46.968Z,23.40
2018-09-20T19:26:15.435Z,23.30
2018-09-20T19:28:43.848Z,23.30
2018-09-20T19:31:12.054Z,23.30
2018-09-20T19:33:40.346Z,23.20
2018-09-20T19:36:08.644Z,23.20
2018-09-20T19:38:38.656Z,23.30
2018-09-20T19:41:07.094Z,23.30
2018-09-20T19:43:36.499Z,23.20
2018-09-20T19:46:04.736Z,23.20
2018-09-20T19:48:32.839Z,23.20
2018-09-20T19:51:00.932Z,23.20
2018-09-20T19:53:29.045Z,23.20
2018-09-20T19:55:57.179Z,23.20
2018-09-20T19:58:25.320Z,23.10
2018-09-20T20:00:53.462Z,23.20
2018-09-20T20:03:21.599Z,23.10
2018-09-20T20:05:49.713Z,23.10
2018-09-20T20:08:17.849Z,23.10
2018-09-20T20:10:45.973Z,23.10
2018-09-20T20:13:14.083Z,23.10
2018-09-20T20:15:42.257Z,23.00
2018-09-20T20:18:10.449Z,23.10
2018-09-20T20:20:38.600Z,23.00
2018-09-20T20:23:06.765Z,23.00
2018-09-20T20:25:34.908Z,23.00
2018-09-20T20:28:03.006Z,23.00
2018-09-20T20:30:31.104Z,23.00
2018-09-20T20:32:59.256Z,23.00
2018-09-20T20:35:27.362Z,22.90
2018-09-20T20:37:55.488Z,22.90
2018-09-20T20:40:23.593Z,22.90
2018-09-20T20:42:51.766Z,22.80
2018-09-20T20:45:19.901Z,22.80
2018-09-20T20:47:48.015Z,22.80
2018-09-20T20:50:16.151Z,22.80
2018-09-20T20:52:44.245Z,22.80
2018-09-20T20:55:12.401Z,22.70
2018-09-20T20:57:40.535Z,22.70
2018-09-20T21:00:08.650Z,22.70
2018-09-20T21:02:36.844Z,22.70
2018-09-20T21:08:31.220Z,22.70
2018-09-20T21:10:59.503Z,22.70
2018-09-20T21:13:27.841Z,22.60
2018-09-20T21:15:56.413Z,22.60
2018-09-20T21:18:24.553Z,22.60
2018-09-20T21:20:52.711Z,22.60
2018-09-20T21:23:20.875Z,22.60
2018-09-20T21:25:49.478Z,22.60
2018-09-20T21:28:17.653Z,22.60
2018-09-20T21:30:45.859Z,22.60
2018-09-20T21:33:13.990Z,22.50
2018-09-20T21:35:42.114Z,22.60
2018-09-20T21:38:10.226Z,22.50
2018-09-20T21:40:38.387Z,22.40
2018-09-20T21:43:06.522Z,22.40
2018-09-20T21:45:34.658Z,22.40
2018-09-20T21:48:02.797Z,22.40
2018-09-20T21:50:30.914Z,22.40
2018-09-20T21:52:59.077Z,22.30
2018-09-20T21:55:27.230Z,22.20
2018-09-20T21:57:55.417Z,22.30
2018-09-20T22:00:23.550Z,22.20
2018-09-20T22:02:57.190Z,22.30
2018-09-20T22:05:25.337Z,22.30
2018-09-20T22:07:53.506Z,22.30
2018-09-20T22:10:21.688Z,22.30
2018-09-20T22:12:49.821Z,22.30
2018-09-20T22:15:22.261Z,22.30
2018-09-20T22:17:50.426Z,22.30
2018-09-20T22:20:18.562Z,22.20
2018-09-20T22:22:46.776Z,22.20
2018-09-20T22:25:14.936Z,22.20
2018-09-20T22:27:43.126Z,22.20
2018-09-20T22:30:11.257Z,22.20
2018-09-20T22:32:39.376Z,22.20
2018-09-20T22:35:07.514Z,22.20
2018-09-20T22:37:35.623Z,22.10
2018-09-20T22:40:04.463Z,22.20
2018-09-20T22:42:32.593Z,22.20
2018-09-20T22:45:01.406Z,22.10
2018-09-20T22:47:29.525Z,22.10
2018-09-20T22:49:57.677Z,22.10
2018-09-20T22:52:25.805Z,22.00
2018-09-20T22:54:53.941Z,22.00
2018-09-20T22:57:22.054Z,21.90
2018-09-20T22:59:50.153Z,21.90
2018-09-20T23:02:18.334Z,21.90
2018-09-20T23:04:46.498Z,21.90
2018-09-20T23:07:14.633Z,21.90
2018-09-20T23:09:42.745Z,21.80
2018-09-20T23:12:10.857Z,21.80
2018-09-20T23:14:39.008Z,21.90
2018-09-20T23:17:07.228Z,21.80
2018-09-20T23:19:35.438Z,21.80
2018-09-20T23:22:03.569Z,21.80
2018-09-20T23:24:31.736Z,21.70
2018-09-20T23:26:59.849Z,21.70
2018-09-20T23:29:27.964Z,21.70
2018-09-20T23:31:56.210Z,21.70
2018-09-20T23:34:24.358Z,21.70
2018-09-20T23:36:52.493Z,21.70
2018-09-20T23:39:20.642Z,21.60
2018-09-20T23:41:48.798Z,21.70
2018-09-20T23:44:16.921Z,21.60
2018-09-20T23:46:45.037Z,21.50
2018-09-20T23:49:13.189Z,21.50
2018-09-20T23:51:41.289Z,21.50
2018-09-20T23:54:09.393Z,21.50
2018-09-20T23:56:37.613Z,21.50
2018-09-20T23:59:05.730Z,21.50
